Etusivu
METAR-TAF:

METAR-TAF

Lentoasemat :

Red Lake, Ontario, Kanada

Leveyspiiri: 51-04N, Pituuspiiri: 093-48W, korkeus merenpinnasta: 375 m

Tämänhetkinen sää

Tämä raportti tehtiin 12 minuuttia sitten, kello 10.00 UTC
Tuuli 7 kn pohjoisesta/koillisesta
Lämpötila -14°C
Kosteus 85%
Ilmanpaine 1027 hPa
Näkyvyys: 19.3 km
Pilvistä 1200 ft:n korkeudessa
heikkoa lumisadetta

METAR: CYRL 251000Z 02007KT 12SM -SN OVC012 M14/M16 A3032 RMK SC8 SLP298

Aika: 04:12 (10:12 UTC)

Sääennuste

Tämä raportti tehtiin 14 tuntia ja 34 minuuttia sitten, kello 19.38 UTC
Ennuste voimassa 24. päivästä klo 20 UTC - 25. päivään klo 03 UTC
Tuuli 6 kn pohjoisesta
Näkyvyys: 10 km
Hajanaisia pilviä 3000 ft:n korkeudessa
Ajoittain
24. päivästä klo 20 UTC - 25. päivään klo 03 UTC
Pilvistä 2000 ft:n korkeudessa

TAF: CYRL 241938Z 2420/2503 35006KT P6SM SCT030 TEMPO 2420/2503 OVC020 RMK NXT FCST WILL BE ISSUED AT 251145Z

Säähavainnot ja -ennusteet yli 4000 lentoasemalta (METAR- ja TAF-raportit).

Käytössä olevat sääasemat on merkitty karttaan keltaisilla ja punaisilla pisteillä.

Aseta hiiri pisteen päälle nähdäksesi sääaseman nimen.

Klikkaa sitten nähdäksesi säähavainnot ja -ennusteet.

Kartan vaihtaminen: klikkaa mustalla rastilla varustettuja vihreitä pisteitä, niin voit zoomata sisään; viivalla varustettua vihreää pistettä, niin voit zoomata ulos tai vihreitä nuolia, niin pääset viereisille kartoille.


METAR-TAF: